createdAt,value
2018-06-12T00:01:10.369Z,5.00
2018-06-12T00:03:38.889Z,4.73
2018-06-12T00:06:07.205Z,7.20
2018-06-12T00:08:35.830Z,4.80
2018-06-12T00:11:03.139Z,5.45
2018-06-12T00:13:31.525Z,5.03
2018-06-12T00:15:59.823Z,5.00
2018-06-12T00:18:28.117Z,6.22
2018-06-12T00:20:56.405Z,6.50
2018-06-12T00:23:24.730Z,5.72
2018-06-12T00:25:54.014Z,4.80
2018-06-12T00:28:22.339Z,6.33
2018-06-12T00:30:55.727Z,5.10
2018-06-12T00:33:24.005Z,5.60
2018-06-12T00:35:52.285Z,4.95
2018-06-12T00:38:21.117Z,4.87
2018-06-12T00:40:49.556Z,5.67
2018-06-12T00:43:17.866Z,4.95
2018-06-12T00:45:46.181Z,6.47
2018-06-12T00:48:14.497Z,5.40
2018-06-12T00:50:42.884Z,4.95
2018-06-12T00:53:11.321Z,5.80
2018-06-12T00:55:39.622Z,4.55
2018-06-12T00:58:07.920Z,5.70
2018-06-12T01:00:36.964Z,4.90
2018-06-12T01:03:05.239Z,4.62
2018-06-12T01:05:33.564Z,4.55
2018-06-12T01:08:02.227Z,4.62
2018-06-12T01:10:30.849Z,4.35
2018-06-12T01:13:00.935Z,4.60
2018-06-12T01:15:29.218Z,5.20
2018-06-12T01:17:57.487Z,5.60
2018-06-12T01:20:35.324Z,6.90
2018-06-12T01:23:03.995Z,5.72
2018-06-12T01:25:32.333Z,4.93
2018-06-12T01:28:00.617Z,3.90
2018-06-12T01:30:30.033Z,5.37
2018-06-12T01:32:59.409Z,4.87
2018-06-12T01:35:27.695Z,4.85
2018-06-12T01:37:55.992Z,6.70
2018-06-12T01:40:24.377Z,4.78
2018-06-12T01:42:52.679Z,4.78
2018-06-12T01:45:21.003Z,4.97
2018-06-12T01:47:49.343Z,4.55
2018-06-12T01:50:27.060Z,5.55
2018-06-12T01:52:55.481Z,5.00
2018-06-12T01:55:23.765Z,6.20
2018-06-12T01:57:52.198Z,5.47
2018-06-12T02:00:20.492Z,4.62
2018-06-12T02:02:48.785Z,5.45
2018-06-12T02:05:17.139Z,5.87
2018-06-12T02:07:45.449Z,5.60
2018-06-12T02:10:18.842Z,5.40
2018-06-12T02:12:47.425Z,5.25
2018-06-12T02:15:16.108Z,6.03
2018-06-12T02:17:44.462Z,6.37
2018-06-12T02:20:12.797Z,4.50
2018-06-12T02:22:41.385Z,6.78
2018-06-12T02:25:09.675Z,4.85
2018-06-12T02:27:38.041Z,4.22
2018-06-12T02:30:06.430Z,5.12
2018-06-12T02:32:34.749Z,3.87
2018-06-12T02:35:03.113Z,4.90
2018-06-12T02:37:31.447Z,8.63
2018-06-12T02:39:59.879Z,6.10
2018-06-12T02:42:28.222Z,6.92
2018-06-12T02:44:56.835Z,4.67
2018-06-12T02:47:25.123Z,5.50
2018-06-12T02:49:58.507Z,4.85
2018-06-12T02:52:27.048Z,9.18
2018-06-12T02:54:56.527Z,5.28
2018-06-12T02:57:25.091Z,7.10
2018-06-12T02:59:58.593Z,5.08
2018-06-12T03:02:27.053Z,6.40
2018-06-12T03:04:55.547Z,5.75
2018-06-12T03:07:24.032Z,6.55
2018-06-12T03:10:01.897Z,6.37
2018-06-12T03:12:30.525Z,8.00
2018-06-12T03:14:59.092Z,6.50
2018-06-12T03:17:27.651Z,5.62
2018-06-12T03:20:09.886Z,6.47
2018-06-12T03:22:38.343Z,6.60
2018-06-12T03:25:07.048Z,6.47
2018-06-12T03:27:35.771Z,9.93
2018-06-12T03:30:04.373Z,7.03
2018-06-12T03:32:33.855Z,7.55
2018-06-12T03:35:02.987Z,10.30
2018-06-12T03:37:32.365Z,8.88
2018-06-12T03:40:05.929Z,7.37
2018-06-12T03:42:34.779Z,9.83
2018-06-12T03:45:03.281Z,7.47
2018-06-12T03:47:32.113Z,6.63
2018-06-12T03:50:05.557Z,9.20
2018-06-12T03:52:33.852Z,9.33
2018-06-12T03:55:02.204Z,8.60
2018-06-12T03:57:30.835Z,8.23
2018-06-12T04:00:12.881Z,8.93
2018-06-12T04:02:41.269Z,8.33
2018-06-12T04:05:09.888Z,8.65
2018-06-12T04:07:38.230Z,8.38
2018-06-12T04:10:06.850Z,8.65
2018-06-12T04:12:35.159Z,11.60
2018-06-12T04:15:03.541Z,9.48
2018-06-12T04:17:32.399Z,10.03
2018-06-12T04:20:23.546Z,8.98
2018-06-12T04:22:51.824Z,10.37
2018-06-12T04:25:20.820Z,8.20
2018-06-12T04:27:49.158Z,10.15
2018-06-12T04:30:22.565Z,12.03
2018-06-12T04:32:50.897Z,12.20
2018-06-12T04:35:20.056Z,8.63
2018-06-12T04:37:48.351Z,9.77
2018-06-12T04:51:57.275Z,9.18
2018-06-12T04:54:25.617Z,7.72
2018-06-12T04:56:53.933Z,10.00
2018-06-12T04:59:22.341Z,8.93
2018-06-12T05:01:57.275Z,9.95
2018-06-12T05:04:25.681Z,7.45
2018-06-12T05:06:54.372Z,9.78
2018-06-12T05:09:23.187Z,7.97
2018-06-12T05:11:51.519Z,11.18
2018-06-12T05:14:20.387Z,8.78
2018-06-12T05:16:48.737Z,10.30
2018-06-12T05:19:22.070Z,11.88
2018-06-12T05:21:50.427Z,11.68
2018-06-12T05:24:18.687Z,8.25
2018-06-12T05:26:46.961Z,11.22
2018-06-12T05:29:15.246Z,9.63
2018-06-12T05:31:43.533Z,9.03
2018-06-12T05:34:12.040Z,13.00
2018-06-12T05:36:40.387Z,10.72
2018-06-12T05:39:10.940Z,8.18
2018-06-12T05:41:40.003Z,11.40
2018-06-12T05:44:08.301Z,8.30
2018-06-12T05:46:36.695Z,7.17
2018-06-12T05:49:05.290Z,9.33
2018-06-12T06:00:35.141Z,9.78
2018-06-12T06:03:03.523Z,8.78
2018-06-12T06:05:31.922Z,8.33
2018-06-12T06:08:00.301Z,12.88
2018-06-12T06:13:21.238Z,8.25
2018-06-12T06:15:49.729Z,8.47
2018-06-12T06:18:18.431Z,9.18
2018-06-12T06:20:46.812Z,10.85
2018-06-12T06:23:15.097Z,7.37
2018-06-12T06:25:43.365Z,13.25
2018-06-12T06:28:11.907Z,7.70
2018-06-12T06:30:40.317Z,8.70
2018-06-12T06:33:08.717Z,10.45
2018-06-12T06:35:37.475Z,11.90
2018-06-12T06:38:05.931Z,12.80
2018-06-12T06:40:47.987Z,14.45
2018-06-12T06:43:16.371Z,8.40
2018-06-12T06:45:44.826Z,13.68
2018-06-12T06:48:13.151Z,10.98
2018-06-12T06:50:41.687Z,11.78
2018-06-12T06:53:10.039Z,11.90
2018-06-12T06:55:38.403Z,14.75
2018-06-12T06:58:06.760Z,9.78
2018-06-12T07:00:36.740Z,10.63
2018-06-12T07:03:05.489Z,14.43
2018-06-12T07:05:35.257Z,13.38
2018-06-12T07:08:03.600Z,12.40
2018-06-12T07:10:37.281Z,14.53
2018-06-12T07:13:07.382Z,10.72
2018-06-12T07:15:36.864Z,15.30
2018-06-12T07:18:05.240Z,10.65
2018-06-12T07:20:49.198Z,10.93
2018-06-12T07:23:19.711Z,12.82
2018-06-12T07:25:48.480Z,11.97
2018-06-12T07:28:17.767Z,9.53
2018-06-12T07:30:46.615Z,8.90
2018-06-12T07:33:14.950Z,10.38
2018-06-12T07:35:43.265Z,8.33
2018-06-12T07:38:12.227Z,12.40
2018-06-12T07:40:41.099Z,10.25
2018-06-12T07:43:09.487Z,8.08
2018-06-12T07:45:37.839Z,12.37
2018-06-12T07:48:06.369Z,12.18
2018-06-12T07:50:48.624Z,11.03
2018-06-12T07:53:17.299Z,8.83
2018-06-12T07:55:46.064Z,9.75
2018-06-12T07:58:14.636Z,9.75
2018-06-12T08:00:43.549Z,9.30
2018-06-12T08:03:12.255Z,11.12
2018-06-12T08:05:40.669Z,8.78
2018-06-12T08:08:09.007Z,10.80
2018-06-12T08:10:37.617Z,12.70
2018-06-12T08:13:06.072Z,10.85
2018-06-12T08:15:34.606Z,8.75
2018-06-12T08:18:04.357Z,11.80
2018-06-12T08:20:32.739Z,9.78
2018-06-12T08:23:01.067Z,11.63
2018-06-12T08:25:29.597Z,13.38
2018-06-12T08:27:58.006Z,9.13
2018-06-12T08:30:31.594Z,10.58
2018-06-12T08:32:59.945Z,11.22
2018-06-12T08:35:28.279Z,10.78
2018-06-12T08:37:56.902Z,11.38
2018-06-12T08:40:30.331Z,10.75
2018-06-12T08:42:58.644Z,9.80
2018-06-12T08:45:26.948Z,10.18
2018-06-12T08:47:55.339Z,11.70
2018-06-12T08:53:38.976Z,11.20
2018-06-12T08:56:07.395Z,12.75
2018-06-12T08:58:35.736Z,14.98
2018-06-12T09:01:14.645Z,13.15
2018-06-12T09:03:43.136Z,15.45
2018-06-12T09:06:11.668Z,11.90
2018-06-12T09:08:40.176Z,12.03
2018-06-12T09:11:08.582Z,10.60
2018-06-12T09:13:37.023Z,11.90
2018-06-12T09:16:05.498Z,11.48
2018-06-12T09:18:34.195Z,17.80
2018-06-12T09:21:07.595Z,13.25
2018-06-12T09:23:36.061Z,12.35
2018-06-12T09:26:04.790Z,18.48
2018-06-12T09:28:33.259Z,11.50
2018-06-12T09:31:04.022Z,11.57
2018-06-12T09:33:33.191Z,9.98
2018-06-12T09:36:16.849Z,12.10
2018-06-12T09:38:48.119Z,11.53
2018-06-12T09:41:19.311Z,11.30
2018-06-12T09:43:49.454Z,8.65
2018-06-12T09:46:23.255Z,7.72
2018-06-12T09:48:52.490Z,8.23
2018-06-12T09:51:21.192Z,13.48
2018-06-12T09:53:50.427Z,11.90
2018-06-12T09:56:20.369Z,7.45
2018-06-12T09:58:49.318Z,10.10
2018-06-12T10:01:22.534Z,9.85
2018-06-12T10:03:52.947Z,12.90
2018-06-12T10:06:23.159Z,9.63
2018-06-12T10:08:51.937Z,12.58
2018-06-12T10:11:20.307Z,11.78
2018-06-12T10:13:48.974Z,10.20
2018-06-12T10:16:17.929Z,8.70
2018-06-12T10:18:47.172Z,11.38
2018-06-12T10:21:16.349Z,9.88
2018-06-12T10:23:45.693Z,9.13
2018-06-12T10:26:14.917Z,6.45
2018-06-12T10:28:43.881Z,10.75
2018-06-12T10:31:12.711Z,6.75
2018-06-12T10:33:41.682Z,9.50
2018-06-12T10:36:10.956Z,6.92
2018-06-12T10:38:39.363Z,8.98
2018-06-12T10:41:07.917Z,7.20
2018-06-12T10:43:36.506Z,8.88
2018-06-12T10:46:05.061Z,7.75
2018-06-12T10:48:34.225Z,7.75
2018-06-12T10:53:55.781Z,6.33
2018-06-12T10:56:24.413Z,7.70
2018-06-12T10:58:53.333Z,8.60
2018-06-12T11:01:22.867Z,7.22
2018-06-12T11:03:52.518Z,6.83
2018-06-12T11:06:21.572Z,7.40
2018-06-12T11:08:50.753Z,6.97
2018-06-12T11:11:19.413Z,6.28
2018-06-12T11:13:48.082Z,6.62
2018-06-12T11:16:16.401Z,7.28
2018-06-12T11:18:45.829Z,7.50
2018-06-12T11:21:24.509Z,6.62
2018-06-12T11:23:53.647Z,6.85
2018-06-12T11:26:23.127Z,6.37
2018-06-12T11:28:51.643Z,7.20
2018-06-12T11:31:21.359Z,6.03
2018-06-12T11:33:50.675Z,7.40
2018-06-12T11:36:19.085Z,7.15
2018-06-12T11:38:48.121Z,5.42
2018-06-12T11:41:16.847Z,4.33
2018-06-12T11:43:45.410Z,6.65
2018-06-12T11:46:14.046Z,7.65
2018-06-12T11:48:42.483Z,6.35
2018-06-12T11:51:24.507Z,9.75
2018-06-12T11:53:52.953Z,8.18
2018-06-12T11:56:21.746Z,6.55
2018-06-12T11:58:50.412Z,7.87
2018-06-12T12:01:19.811Z,8.03
2018-06-12T12:03:48.279Z,6.40
2018-06-12T12:06:16.984Z,6.45
2018-06-12T12:08:45.652Z,4.53
2018-06-12T12:11:24.853Z,6.40
2018-06-12T12:13:53.250Z,5.08
2018-06-12T12:16:21.919Z,8.65
2018-06-12T12:18:51.606Z,10.40
2018-06-12T12:21:21.635Z,6.42
2018-06-12T12:23:50.738Z,7.15
2018-06-12T12:26:19.778Z,4.70
2018-06-12T12:28:48.394Z,4.42
2018-06-12T12:31:17.142Z,6.92
2018-06-12T12:36:38.444Z,6.53
2018-06-12T12:39:09.202Z,7.90
2018-06-12T12:41:46.970Z,4.35
2018-06-12T12:44:16.221Z,9.98
2018-06-12T12:46:52.104Z,8.78
2018-06-12T12:49:22.090Z,5.62
2018-06-12T12:51:50.742Z,5.17
2018-06-12T12:54:24.922Z,8.45
2018-06-12T12:56:55.738Z,5.40
2018-06-12T12:59:27.136Z,6.47
2018-06-12T13:01:55.787Z,5.60
2018-06-12T13:04:24.622Z,4.62
2018-06-12T13:06:53.010Z,6.60
2018-06-12T13:09:21.974Z,5.95
2018-06-12T13:11:51.874Z,7.47
2018-06-12T13:14:21.776Z,6.33
2018-06-12T13:16:56.227Z,6.00
2018-06-12T13:19:24.820Z,7.83
2018-06-12T13:21:53.161Z,7.37
2018-06-12T13:24:21.493Z,10.00
2018-06-12T13:26:50.046Z,5.95
2018-06-12T13:29:19.381Z,5.75
2018-06-12T13:31:52.903Z,5.60
2018-06-12T13:34:22.042Z,6.80
2018-06-12T13:36:50.990Z,6.83
2018-06-12T13:39:19.703Z,6.03
2018-06-12T13:41:57.602Z,5.67
2018-06-12T13:44:26.223Z,6.77
2018-06-12T13:47:00.005Z,6.17
2018-06-12T13:49:30.565Z,6.70
2018-06-12T13:51:59.033Z,8.37
2018-06-12T13:54:28.341Z,4.72
2018-06-12T13:57:03.338Z,6.13
2018-06-12T13:59:45.619Z,4.22
2018-06-12T14:02:15.429Z,8.13
2018-06-12T14:04:43.755Z,8.03
2018-06-12T14:07:12.170Z,5.90
2018-06-12T14:09:45.684Z,6.33
2018-06-12T14:12:14.069Z,7.37
2018-06-12T14:14:42.427Z,5.90
2018-06-12T14:17:12.005Z,6.15
2018-06-12T14:19:46.050Z,5.42
2018-06-12T14:22:14.391Z,5.20
2018-06-12T14:24:42.773Z,6.08
2018-06-12T14:27:11.137Z,4.95
2018-06-12T14:29:39.645Z,4.37
2018-06-12T14:32:07.985Z,5.10
2018-06-12T14:34:36.809Z,7.17
2018-06-12T14:37:05.299Z,6.77
2018-06-12T14:39:33.679Z,5.43
2018-06-12T14:42:02.069Z,5.60
2018-06-12T14:44:30.325Z,5.77
2018-06-12T14:46:58.607Z,8.00
2018-06-12T14:49:26.889Z,7.27
2018-06-12T14:51:55.233Z,6.17
2018-06-12T14:54:23.826Z,8.37
2018-06-12T14:56:52.310Z,5.20
2018-06-12T14:59:20.695Z,5.80
2018-06-12T15:01:49.184Z,5.67
2018-06-12T15:04:17.582Z,6.05
2018-06-12T15:06:46.254Z,8.18
2018-06-12T15:09:15.051Z,5.73
2018-06-12T15:11:43.592Z,7.47
2018-06-12T15:14:11.961Z,6.95
2018-06-12T15:16:40.353Z,7.97
2018-06-12T15:19:08.703Z,8.08
2018-06-12T15:24:30.429Z,6.03
2018-06-12T15:26:58.787Z,6.42
2018-06-12T15:29:28.081Z,6.87
2018-06-12T15:31:56.373Z,6.90
2018-06-12T15:34:24.819Z,6.60
2018-06-12T15:36:53.103Z,7.97
2018-06-12T15:39:21.495Z,8.83
2018-06-12T15:41:50.063Z,5.72
2018-06-12T15:44:18.544Z,6.73
2018-06-12T15:46:46.932Z,7.67
2018-06-12T15:49:15.308Z,6.83
2018-06-12T15:51:43.791Z,6.05
2018-06-12T15:54:12.091Z,6.37
2018-06-12T15:56:40.353Z,7.22
2018-06-12T15:59:08.716Z,6.80
2018-06-12T16:01:37.339Z,6.78
2018-06-12T16:04:06.091Z,6.20
2018-06-12T16:06:34.649Z,7.70
2018-06-12T16:09:03.005Z,6.78
2018-06-12T16:11:31.581Z,5.87
2018-06-12T16:13:59.975Z,6.20
2018-06-12T16:16:28.570Z,6.17
2018-06-12T16:18:56.894Z,6.17
2018-06-12T16:21:25.285Z,8.63
2018-06-12T16:23:53.633Z,7.50
2018-06-12T16:26:22.003Z,7.67
2018-06-12T16:28:51.079Z,7.17
2018-06-12T16:31:24.725Z,6.30
2018-06-12T16:33:54.729Z,5.12
2018-06-12T16:36:23.314Z,5.93
2018-06-12T16:38:51.968Z,7.12
2018-06-12T16:41:26.106Z,5.30
2018-06-12T16:43:55.721Z,6.05
2018-06-12T16:46:26.465Z,4.90
2018-06-12T16:48:54.800Z,4.20
2018-06-12T16:51:23.237Z,5.85
2018-06-12T16:53:52.330Z,5.17
2018-06-12T16:56:20.766Z,5.60
2018-06-12T16:58:49.081Z,6.17
2018-06-12T17:01:17.547Z,4.72
2018-06-12T17:03:46.037Z,4.20
2018-06-12T17:06:14.439Z,6.17
2018-06-12T17:08:44.750Z,7.25
2018-06-12T17:11:13.285Z,6.22
2018-06-12T17:13:41.571Z,6.33
2018-06-12T17:16:09.941Z,6.80
2018-06-12T17:18:38.559Z,6.07
2018-06-12T17:21:20.662Z,6.03
2018-06-12T17:23:49.194Z,6.00
2018-06-12T17:26:17.606Z,5.58
2018-06-12T17:28:46.000Z,4.72
2018-06-12T17:31:14.695Z,7.00
2018-06-12T17:33:43.097Z,7.80
2018-06-12T17:36:11.520Z,7.03
2018-06-12T17:38:39.924Z,8.03
2018-06-12T17:41:08.509Z,6.20
2018-06-12T17:43:36.871Z,5.60
2018-06-12T17:46:05.399Z,6.70
2018-06-12T17:48:34.040Z,7.67
2018-06-12T17:51:02.441Z,7.62
2018-06-12T17:53:30.968Z,7.17
2018-06-12T17:55:59.394Z,6.10
2018-06-12T17:58:27.914Z,6.10
2018-06-12T18:00:56.250Z,5.47
2018-06-12T18:03:24.724Z,5.97
2018-06-12T18:05:53.088Z,5.62
2018-06-12T18:08:21.492Z,5.85
2018-06-12T18:10:59.341Z,5.33
2018-06-12T18:13:27.832Z,4.65
2018-06-12T18:15:56.396Z,6.45
2018-06-12T18:18:25.886Z,4.75
2018-06-12T18:20:54.550Z,3.27
2018-06-12T18:23:23.055Z,7.85
2018-06-12T18:25:51.977Z,4.42
2018-06-12T18:28:20.635Z,5.67
2018-06-12T18:30:49.984Z,3.70
2018-06-12T18:33:18.418Z,4.42
2018-06-12T18:35:47.820Z,4.78
2018-06-12T18:38:17.189Z,6.53
2018-06-12T18:40:50.770Z,7.67
2018-06-12T18:43:20.080Z,4.20
2018-06-12T18:45:48.401Z,3.20
2018-06-12T18:48:16.896Z,7.08
2018-06-12T18:50:50.292Z,6.22
2018-06-12T18:53:18.675Z,4.90
2018-06-12T18:55:47.219Z,8.35
2018-06-12T18:58:16.303Z,5.15
2018-06-12T19:00:44.831Z,7.22
2018-06-12T19:03:13.388Z,4.05
2018-06-12T19:05:41.791Z,6.08
2018-06-12T19:08:10.655Z,5.03
2018-06-12T19:10:48.712Z,9.33
2018-06-12T19:13:17.276Z,4.35
2018-06-12T19:15:46.230Z,3.35
2018-06-12T19:18:15.031Z,4.85
2018-06-12T19:20:48.603Z,5.70
2018-06-12T19:23:17.459Z,6.85
2018-06-12T19:25:46.221Z,5.12
2018-06-12T19:28:14.778Z,5.03
2018-06-12T19:30:43.411Z,4.17
2018-06-12T19:33:12.907Z,4.03
2018-06-12T19:35:41.923Z,5.42
2018-06-12T19:38:10.599Z,4.72
2018-06-12T19:40:39.907Z,7.90
2018-06-12T19:43:08.353Z,5.30
2018-06-12T19:45:39.551Z,5.30
2018-06-12T19:48:10.415Z,5.45
2018-06-12T19:50:41.329Z,7.60
2018-06-12T19:53:11.342Z,4.90
2018-06-12T19:55:41.703Z,7.22
2018-06-12T19:58:10.751Z,7.25
2018-06-12T20:00:39.662Z,4.87
2018-06-12T20:03:08.348Z,4.65
2018-06-12T20:05:36.870Z,6.90
2018-06-12T20:08:05.396Z,8.00
2018-06-12T20:10:34.014Z,6.45
2018-06-12T20:13:03.610Z,4.90
2018-06-12T20:15:32.025Z,4.20
2018-06-12T20:18:00.643Z,8.18
2018-06-12T20:20:29.371Z,5.70
2018-06-12T20:22:57.762Z,6.67
2018-06-12T20:25:26.335Z,7.45
2018-06-12T20:27:55.104Z,5.47
2018-06-12T20:33:16.555Z,3.98
2018-06-12T20:35:45.051Z,6.58
2018-06-12T20:38:13.571Z,4.72
2018-06-12T20:40:51.492Z,6.05
2018-06-12T20:43:20.041Z,5.50
2018-06-12T20:45:48.368Z,4.03
2018-06-12T20:48:17.283Z,6.22
2018-06-12T20:50:50.794Z,3.65
2018-06-12T20:53:19.223Z,7.70
2018-06-12T20:55:48.158Z,4.75
2018-06-12T20:58:16.947Z,4.17
2018-06-12T21:00:45.751Z,4.85
2018-06-12T21:03:14.447Z,5.22
2018-06-12T21:05:43.151Z,3.83
2018-06-12T21:08:11.784Z,4.67
2018-06-12T21:10:40.197Z,3.95
2018-06-12T21:13:09.075Z,5.35
2018-06-12T21:15:37.738Z,4.67
2018-06-12T21:18:06.055Z,3.98
2018-06-12T21:20:34.433Z,3.92
2018-06-12T21:23:02.745Z,4.33
2018-06-12T21:25:31.245Z,4.28
2018-06-12T21:27:59.554Z,3.17
2018-06-12T21:30:33.071Z,6.87
2018-06-12T21:33:01.442Z,4.60
2018-06-12T21:35:30.365Z,5.15
2018-06-12T21:37:58.752Z,5.75
2018-06-12T21:40:40.818Z,4.15
2018-06-12T21:43:09.090Z,4.12
2018-06-12T21:45:37.448Z,4.28
2018-06-12T21:48:05.780Z,6.28
2018-06-12T21:50:34.182Z,6.42
2018-06-12T21:53:02.753Z,6.30
2018-06-12T21:55:31.193Z,4.22
2018-06-12T21:58:00.032Z,3.20
2018-06-12T22:03:21.145Z,6.35
2018-06-12T22:05:49.499Z,5.08
2018-06-12T22:08:18.208Z,5.53
2018-06-12T22:10:51.636Z,7.08
2018-06-12T22:13:20.729Z,3.83
2018-06-12T22:15:49.140Z,4.22
2018-06-12T22:18:17.507Z,3.50
2018-06-12T22:23:57.225Z,4.30
2018-06-12T22:26:25.636Z,3.20
2018-06-12T22:28:54.719Z,5.05
2018-06-12T22:31:28.195Z,4.90
2018-06-12T22:33:58.292Z,5.75
2018-06-12T22:36:27.222Z,5.85
2018-06-12T22:38:55.527Z,4.60
2018-06-12T22:44:16.523Z,5.97
2018-06-12T22:46:46.865Z,4.53
2018-06-12T22:49:15.321Z,7.12
2018-06-12T22:51:43.621Z,6.10
2018-06-12T22:54:24.067Z,5.17
2018-06-12T22:56:53.825Z,4.87
2018-06-12T22:59:22.310Z,6.40
2018-06-12T23:05:05.984Z,5.20
2018-06-12T23:07:34.274Z,5.30
2018-06-12T23:13:00.542Z,4.45
2018-06-12T23:15:29.041Z,5.37
2018-06-12T23:17:57.727Z,4.37
2018-06-12T23:20:39.946Z,4.12
2018-06-12T23:23:08.468Z,5.55
2018-06-12T23:25:38.732Z,6.12
2018-06-12T23:28:07.057Z,4.77
2018-06-12T23:30:35.850Z,6.53
2018-06-12T23:33:04.154Z,3.62
2018-06-12T23:35:32.502Z,5.03
2018-06-12T23:38:02.352Z,5.03
2018-06-12T23:40:31.232Z,4.95
2018-06-12T23:43:01.446Z,6.33
2018-06-12T23:45:30.244Z,5.50
2018-06-12T23:47:58.766Z,4.80
2018-06-12T23:56:29.754Z,5.60
2018-06-12T23:59:01.255Z,4.45
